Time;durP1;ratioP1;P1;durP2;ratioP2;P2;SDS_P1;SDS_P2;PMS_P1;PMS_P2;Temp;Humidity;BMP_temperature;BMP_pressure;BME280_temperature;BME280_humidity;BME280_pressure;Samples;Min_cycle;Max_cycle;Signal;HPM_P1;HPM_P2
2022/06/24 00:01:58;;;;;;;4.90;1.50;;;;;;;23.87;63.53;96976.72;5063614;28;20190;-69
2022/06/24 00:04:25;;;;;;;5.03;1.40;;;;;;;23.96;63.37;96972.63;5050879;28;20442;-69
2022/06/24 00:06:51;;;;;;;3.57;1.37;;;;;;;23.99;63.33;96977.50;5054529;28;20460;-69
2022/06/24 00:09:17;;;;;;;5.50;1.63;;;;;;;24.08;62.94;96978.69;5054262;28;20429;-69
2022/06/24 00:11:42;;;;;;;5.60;1.50;;;;;;;23.99;62.51;96982.84;5054680;28;20420;-69
2022/06/24 00:14:13;;;;;;;10.33;1.80;;;;;;;23.94;63.11;96985.44;5056209;28;20649;-70
2022/06/24 00:17:00;;;;;;;5.80;1.80;;;;;;;23.91;62.77;96983.22;5051173;28;20210;-69
2022/06/24 00:19:30;;;;;;;6.60;1.37;;;;;;;23.77;61.70;96970.16;5055033;28;21057;-69
2022/06/24 00:22:05;;;;;;;3.50;1.43;;;;;;;23.69;60.95;96975.91;5041620;28;20423;-71
2022/06/24 00:24:31;;;;;;;6.40;1.40;;;;;;;23.57;61.24;96967.16;5053318;28;20423;-70
2022/06/24 00:26:57;;;;;;;5.03;1.47;;;;;;;23.39;61.87;96969.00;5041384;28;21019;-71
2022/06/24 00:29:25;;;;;;;6.13;1.70;;;;;;;23.49;61.99;96970.22;5020634;28;20508;-71
2022/06/24 00:32:00;;;;;;;9.10;2.03;;;;;;;23.50;62.14;96966.50;5046391;28;20195;-70
2022/06/24 00:34:26;;;;;;;2.40;1.20;;;;;;;23.53;62.35;96966.81;5055298;28;20440;-70
2022/06/24 00:36:51;;;;;;;3.27;1.37;;;;;;;23.61;62.42;96965.63;5053133;28;21022;-70
2022/06/24 00:39:17;;;;;;;8.50;1.87;;;;;;;23.61;62.58;96961.09;5039092;28;20231;-70
2022/06/24 00:41:42;;;;;;;5.17;1.93;;;;;;;23.70;62.83;96945.44;5057763;28;20319;-70
2022/06/24 00:44:09;;;;;;;6.03;1.73;;;;;;;23.78;62.65;96953.06;5037234;28;20279;-69
2022/06/24 00:46:37;;;;;;;3.00;1.70;;;;;;;23.68;62.79;96946.75;5055073;28;20206;-70
2022/06/24 00:49:04;;;;;;;5.30;1.70;;;;;;;23.52;63.55;96941.13;5036986;28;20520;-70
2022/06/24 00:51:37;;;;;;;6.23;1.47;;;;;;;23.62;63.70;96953.88;5057259;28;20429;-70
2022/06/24 00:54:08;;;;;;;5.37;1.43;;;;;;;23.54;63.02;96955.06;5036908;28;20446;-69
2022/06/24 00:56:34;;;;;;;4.67;1.37;;;;;;;23.57;63.45;96957.28;5055426;28;20530;-70
2022/06/24 00:59:01;;;;;;;4.93;1.53;;;;;;;23.32;62.97;96962.97;5044827;28;20553;-70
2022/06/24 01:01:34;;;;;;;10.13;1.83;;;;;;;23.35;63.03;96953.69;5063465;28;20181;-70
2022/06/24 01:04:00;;;;;;;4.33;1.60;;;;;;;23.33;63.20;96942.41;5056256;28;20809;-71
2022/06/24 01:06:28;;;;;;;6.03;1.87;;;;;;;23.36;63.64;96949.97;5046230;28;20449;-70
2022/06/24 01:08:53;;;;;;;12.17;2.20;;;;;;;23.24;63.57;96939.31;5060975;28;20420;-69
2022/06/24 01:11:45;;;;;;;6.27;1.90;;;;;;;23.01;63.92;96930.34;5048599;28;20429;-70
2022/06/24 01:14:12;;;;;;;7.10;2.00;;;;;;;22.98;64.24;96931.63;5053799;28;20720;-71
2022/06/24 01:16:37;;;;;;;6.83;2.20;;;;;;;22.98;64.82;96934.31;5048741;28;20440;-70
2022/06/24 01:19:05;;;;;;;6.63;2.00;;;;;;;23.08;64.21;96927.53;5054914;28;20464;-70
2022/06/24 01:21:37;;;;;;;6.30;2.40;;;;;;;22.99;64.55;96929.75;5044855;28;20242;-69
2022/06/24 01:24:03;;;;;;;8.20;2.60;;;;;;;22.88;64.23;96919.94;5046837;28;20436;-71
2022/06/24 01:26:28;;;;;;;6.90;2.70;;;;;;;22.65;65.45;96914.44;5048107;28;20818;-69
2022/06/24 01:28:54;;;;;;;5.90;2.17;;;;;;;22.72;65.37;96908.16;5048487;28;20436;-71
2022/06/24 01:31:19;;;;;;;9.20;2.20;;;;;;;22.70;65.06;96917.22;5051567;28;20276;-70
2022/06/24 01:33:45;;;;;;;8.50;2.67;;;;;;;22.49;65.95;96918.66;5045870;28;20343;-69
2022/06/24 01:36:10;;;;;;;5.33;2.23;;;;;;;22.44;66.23;96921.22;5059269;28;20195;-71
2022/06/24 01:38:37;;;;;;;3.80;2.20;;;;;;;22.41;66.81;96927.03;5037170;28;20311;-70
2022/06/24 01:41:02;;;;;;;7.97;2.30;;;;;;;22.24;66.72;96922.41;5053481;28;20956;-69
2022/06/24 01:43:28;;;;;;;11.10;2.60;;;;;;;22.12;66.95;96915.44;5043162;28;20185;-69
2022/06/24 01:45:53;;;;;;;6.27;2.30;;;;;;;22.26;66.70;96903.47;5053022;28;20210;-70
2022/06/24 01:48:18;;;;;;;8.70;2.10;;;;;;;22.39;66.12;96910.41;5052402;28;20204;-69
2022/06/24 01:50:44;;;;;;;6.07;1.90;;;;;;;22.38;66.30;96919.47;5050365;28;20211;-69
2022/06/24 01:53:09;;;;;;;5.13;2.20;;;;;;;22.40;65.97;96915.50;5043832;28;20191;-70
2022/06/24 01:55:35;;;;;;;9.43;2.10;;;;;;;22.46;65.74;96908.44;5050752;28;20628;-69
2022/06/24 01:58:00;;;;;;;7.13;2.60;;;;;;;22.38;65.63;96903.47;5045794;28;20220;-70
2022/06/24 02:00:26;;;;;;;7.10;2.10;;;;;;;22.36;65.59;96902.88;5059803;28;20181;-72
2022/06/24 02:02:51;;;;;;;6.07;2.10;;;;;;;22.39;65.15;96915.75;5050867;28;20271;-70
2022/06/24 02:05:17;;;;;;;5.90;2.07;;;;;;;22.29;65.81;96910.22;5049286;28;20183;-71
2022/06/24 02:07:43;;;;;;;2.77;1.80;;;;;;;22.33;65.60;96904.16;5047007;28;20206;-71
2022/06/24 02:15:36;;;;;;;7.03;2.60;;;;;;;22.28;65.79;96903.25;5041890;28;20420;-72
2022/06/24 02:18:02;;;;;;;4.80;2.97;;;;;;;22.23;65.94;96901.28;5049695;28;20469;-69
2022/06/24 02:20:28;;;;;;;11.87;2.40;;;;;;;22.29;66.02;96894.19;5055855;28;20657;-70
2022/06/24 02:22:53;;;;;;;5.27;2.67;;;;;;;22.24;65.58;96898.38;5031636;28;20196;-69
2022/06/24 02:25:19;;;;;;;7.13;1.90;;;;;;;22.23;65.82;96895.94;5056152;28;20666;-69
2022/06/24 02:27:46;;;;;;;5.27;1.90;;;;;;;22.25;65.61;96894.66;5039015;28;20208;-70
2022/06/24 02:30:11;;;;;;;7.27;2.07;;;;;;;22.28;65.51;96893.38;5055428;28;20184;-69
2022/06/24 02:32:37;;;;;;;8.63;2.17;;;;;;;22.28;65.29;96897.91;5042128;28;20479;-69
2022/06/24 02:35:03;;;;;;;6.90;2.30;;;;;;;22.29;65.61;96888.84;5059731;28;20264;-70
2022/06/24 02:37:28;;;;;;;5.47;1.80;;;;;;;22.21;65.30;96898.84;5047002;28;20211;-69
2022/06/24 02:39:54;;;;;;;4.60;1.60;;;;;;;22.16;65.54;96897.91;5042772;28;20186;-69
2022/06/24 02:42:19;;;;;;;8.53;2.20;;;;;;;22.13;65.41;96896.53;5050886;28;20190;-69
2022/06/24 02:44:45;;;;;;;10.07;2.67;;;;;;;22.14;65.48;96895.50;5044139;28;20216;-70
2022/06/24 02:47:10;;;;;;;6.30;1.53;;;;;;;22.08;65.18;96901.75;5051787;28;20215;-69
2022/06/24 02:49:36;;;;;;;3.23;2.13;;;;;;;22.03;65.07;96913.13;5038054;28;20190;-69
2022/06/24 02:52:01;;;;;;;5.03;2.37;;;;;;;22.00;65.55;96902.91;5048617;28;20710;-72
2022/06/24 02:54:27;;;;;;;4.43;1.93;;;;;;;22.00;65.57;96902.13;5042585;28;20266;-71
2022/06/24 02:56:52;;;;;;;6.83;2.10;;;;;;;21.97;65.54;96898.06;5051574;28;20207;-70
2022/06/24 02:59:18;;;;;;;4.90;1.60;;;;;;;22.00;65.30;96897.59;5037273;28;20674;-71
2022/06/24 03:01:43;;;;;;;7.77;2.10;;;;;;;22.08;65.31;96888.41;5052809;28;20684;-69
2022/06/24 03:04:09;;;;;;;6.70;1.83;;;;;;;22.13;64.85;96896.53;5046868;28;20196;-70
2022/06/24 03:06:34;;;;;;;9.30;2.30;;;;;;;22.17;64.85;96889.69;5063792;28;20225;-70
2022/06/24 03:09:00;;;;;;;12.20;2.07;;;;;;;22.12;64.68;96892.25;5051218;28;20672;-71
2022/06/24 03:11:25;;;;;;;6.23;2.20;;;;;;;22.13;64.29;96888.53;5067890;28;20236;-70
2022/06/24 03:13:50;;;;;;;6.60;2.40;;;;;;;22.17;64.26;96881.69;5068156;28;20225;-70
2022/06/24 03:16:16;;;;;;;6.97;2.43;;;;;;;22.12;64.00;96884.25;5051190;28;20184;-70
2022/06/24 03:18:41;;;;;;;8.70;2.00;;;;;;;22.12;64.42;96894.91;5069482;28;20281;-70
2022/06/24 03:21:08;;;;;;;8.00;2.13;;;;;;;22.19;64.62;96884.91;5063458;28;20265;-70
2022/06/24 03:23:33;;;;;;;6.27;2.37;;;;;;;22.15;64.62;96883.78;5055669;28;20269;-70
2022/06/24 03:26:02;;;;;;;5.50;2.30;;;;;;;22.16;64.39;96882.75;5058082;28;20903;-71
2022/06/24 03:28:27;;;;;;;6.77;2.10;;;;;;;22.19;64.11;96874.25;5048246;28;20183;-70
2022/06/24 03:30:52;;;;;;;9.90;2.30;;;;;;;22.17;63.95;96870.19;5068155;28;20505;-70
2022/06/24 03:33:18;;;;;;;7.20;2.47;;;;;;;22.15;63.54;96867.78;5047390;28;20206;-70
2022/06/24 03:35:43;;;;;;;5.63;2.40;;;;;;;22.11;63.86;96881.81;5071227;28;20186;-69
2022/06/24 03:38:09;;;;;;;6.63;2.13;;;;;;;22.05;63.58;96884.38;5056243;28;20242;-70
2022/06/24 03:40:34;;;;;;;8.50;2.50;;;;;;;21.99;64.02;96889.81;5064873;28;20269;-69
2022/06/24 03:43:00;;;;;;;7.03;2.10;;;;;;;21.98;64.17;96885.53;5057893;28;20260;-70
2022/06/24 03:45:25;;;;;;;6.53;2.50;;;;;;;22.01;63.88;96877.06;5044484;28;20586;-70
2022/06/24 03:47:51;;;;;;;7.97;2.70;;;;;;;21.98;63.84;96880.19;5059209;28;20202;-70
2022/06/24 03:50:17;;;;;;;6.20;2.23;;;;;;;21.99;63.99;96863.94;5048220;28;20283;-70
2022/06/24 03:52:42;;;;;;;5.80;2.10;;;;;;;22.03;63.74;96867.78;5042653;28;20214;-72
2022/06/24 03:55:08;;;;;;;6.43;1.97;;;;;;;22.04;63.66;96865.94;5037482;28;20180;-70
2022/06/24 03:57:34;;;;;;;6.17;2.20;;;;;;;22.04;63.63;96881.94;5046170;28;20207;-70
2022/06/24 03:59:59;;;;;;;5.10;1.80;;;;;;;21.89;63.42;96874.41;5045418;28;20198;-70
2022/06/24 04:02:25;;;;;;;5.10;2.00;;;;;;;21.94;63.17;96880.66;5040414;28;20195;-70
2022/06/24 04:04:50;;;;;;;11.83;2.47;;;;;;;21.91;63.81;96875.81;5040900;28;20187;-70
2022/06/24 04:07:16;;;;;;;9.10;2.13;;;;;;;21.94;63.56;96875.31;5037086;28;20250;-70
2022/06/24 04:09:41;;;;;;;11.03;2.30;;;;;;;21.93;63.73;96880.91;5045779;28;20269;-69
2022/06/24 04:12:07;;;;;;;8.13;2.30;;;;;;;21.91;63.47;96875.81;5052569;28;20191;-70
2022/06/24 04:17:16;;;;;;;7.53;2.10;;;;;;;21.83;63.60;96865.47;5050956;28;20214;-69
2022/06/24 04:19:42;;;;;;;14.70;2.30;;;;;;;21.91;63.42;96869.66;5051602;28;21047;-69
2022/06/24 04:22:07;;;;;;;6.70;2.50;;;;;;;21.96;63.68;96874.28;5051879;28;20213;-69
2022/06/24 04:24:33;;;;;;;7.37;2.00;;;;;;;22.01;63.55;96877.06;5053468;28;20179;-69
2022/06/24 04:26:58;;;;;;;6.37;2.10;;;;;;;22.01;63.84;96877.88;5051555;28;20670;-71
2022/06/24 04:29:24;;;;;;;8.90;2.60;;;;;;;22.01;64.15;96877.06;5050947;28;20195;-70
2022/06/24 04:31:50;;;;;;;6.83;2.27;;;;;;;22.00;63.86;96880.78;5055420;28;20179;-70
2022/06/24 04:34:15;;;;;;;4.40;2.50;;;;;;;21.99;63.86;96873.81;5051248;28;20849;-69
2022/06/24 04:36:41;;;;;;;7.90;2.10;;;;;;;21.92;64.07;96877.44;5053950;28;20277;-70
2022/06/24 04:39:07;;;;;;;7.17;2.70;;;;;;;21.92;64.29;96879.28;5051159;28;20217;-69
2022/06/24 04:41:32;;;;;;;9.50;2.10;;;;;;;22.00;64.18;96873.56;5048999;28;20182;-69
2022/06/24 04:43:58;;;;;;;8.77;2.57;;;;;;;22.07;64.07;96873.44;5051653;28;20198;-70
2022/06/24 04:46:23;;;;;;;7.43;2.23;;;;;;;22.16;63.54;96864.06;5050516;28;20203;-69
2022/06/24 04:48:49;;;;;;;6.90;2.23;;;;;;;22.13;63.77;96864.53;5050458;28;20262;-70
2022/06/24 04:51:16;;;;;;;5.17;2.50;;;;;;;22.21;63.62;96864.16;5050575;28;20274;-69
2022/06/24 04:53:41;;;;;;;7.00;2.67;;;;;;;22.11;64.08;96860.47;5048397;28;20179;-69
2022/06/24 04:56:07;;;;;;;7.60;2.13;;;;;;;22.08;64.59;96861.72;5050008;28;20433;-70
2022/06/24 04:58:32;;;;;;;12.00;2.27;;;;;;;22.17;64.18;96860.34;5050615;28;20195;-69
2022/06/24 05:00:58;;;;;;;7.63;2.23;;;;;;;22.26;63.91;96858.09;5048822;28;20262;-69
2022/06/24 05:03:24;;;;;;;8.93;2.30;;;;;;;22.31;63.62;96862.72;5042771;28;20222;-69
2022/06/24 05:05:49;;;;;;;11.27;2.53;;;;;;;22.25;63.82;96862.63;5040625;28;20438;-70
2022/06/24 05:08:15;;;;;;;11.47;2.57;;;;;;;22.37;63.72;96869.81;5034716;28;20250;-72
2022/06/24 05:10:41;;;;;;;7.37;2.60;;;;;;;22.48;63.79;96854.84;5050633;28;20264;-69
2022/06/24 05:13:08;;;;;;;8.87;2.50;;;;;;;22.55;63.45;96856.31;5050167;28;20852;-70
2022/06/24 05:15:34;;;;;;;9.70;2.20;;;;;;;22.62;63.06;96855.34;5042387;28;20516;-71
2022/06/24 05:17:59;;;;;;;6.37;2.50;;;;;;;22.73;62.75;96851.03;5034803;28;20549;-69
2022/06/24 05:20:25;;;;;;;11.50;2.93;;;;;;;22.81;62.72;96866.66;5047229;28;20179;-70
2022/06/24 05:22:50;;;;;;;7.13;2.93;;;;;;;22.86;62.49;96856.88;5041410;28;20646;-71
2022/06/24 05:25:16;;;;;;;9.13;2.67;;;;;;;22.94;61.96;96849.50;5050525;28;20699;-69
2022/06/24 05:27:41;;;;;;;10.80;2.73;;;;;;;23.05;61.91;96837.97;5042583;28;20190;-72
2022/06/24 05:30:08;;;;;;;6.50;2.53;;;;;;;23.09;61.72;96839.09;5043788;28;20262;-73
2022/06/24 05:32:34;;;;;;;5.60;2.23;;;;;;;23.16;61.30;96837.09;5040637;28;20186;-72
2022/06/24 05:34:59;;;;;;;6.80;2.50;;;;;;;23.27;60.80;96843.41;5039915;28;20449;-70
2022/06/24 05:37:25;;;;;;;13.03;2.77;;;;;;;23.31;60.22;96846.44;5040806;28;20199;-72
2022/06/24 05:39:50;;;;;;;6.53;2.30;;;;;;;23.28;59.76;96841.56;5042104;28;20184;-71
2022/06/24 05:42:16;;;;;;;8.27;2.50;;;;;;;23.33;59.83;96846.19;5035814;28;20192;-71
2022/06/24 05:44:41;;;;;;;6.30;2.10;;;;;;;23.51;59.70;96837.09;5042722;28;20185;-72
2022/06/24 05:47:07;;;;;;;10.50;2.33;;;;;;;23.55;59.50;96836.38;5045149;28;20203;-72
2022/06/24 05:49:32;;;;;;;8.23;2.27;;;;;;;23.64;59.77;96839.44;5049169;28;20210;-70
2022/06/24 05:51:58;;;;;;;6.13;2.70;;;;;;;23.72;58.87;96832.88;5040356;28;20607;-73
2022/06/24 05:57:07;;;;;;;7.00;2.10;;;;;;;24.04;58.75;96832.22;5040710;28;20195;-71
2022/06/24 05:59:37;;;;;;;7.60;1.93;;;;;;;24.14;58.13;96831.56;5042159;28;20457;-71
2022/06/24 06:02:05;;;;;;;6.33;2.50;;;;;;;24.21;57.27;96834.84;5035060;28;20212;-71
2022/06/24 06:04:30;;;;;;;7.83;2.13;;;;;;;24.28;57.31;96832.81;5033355;28;20958;-73
2022/06/24 06:06:56;;;;;;;7.90;2.37;;;;;;;24.39;56.48;96831.03;5036597;28;20438;-72
2022/06/24 06:09:21;;;;;;;4.37;2.30;;;;;;;24.46;56.65;96838.88;5032660;28;20619;-72
2022/06/24 06:11:47;;;;;;;6.47;2.17;;;;;;;24.42;56.21;96835.09;5035173;28;20184;-72
2022/06/24 06:14:13;;;;;;;8.80;2.50;;;;;;;24.38;56.09;96834.81;5040039;28;20230;-72
2022/06/24 06:16:38;;;;;;;7.10;2.57;;;;;;;24.49;55.86;96835.72;5032471;28;20438;-71
2022/06/24 06:19:04;;;;;;;7.73;1.90;;;;;;;24.56;55.45;96841.69;5032429;28;20261;-71
2022/06/24 06:21:29;;;;;;;9.40;2.60;;;;;;;24.69;55.29;96843.19;5043174;28;20179;-72
2022/06/24 06:23:55;;;;;;;8.47;2.33;;;;;;;24.77;55.26;96840.03;5035045;28;20183;-71
2022/06/24 06:26:20;;;;;;;8.80;2.10;;;;;;;24.89;54.91;96842.59;5033814;28;20256;-71
2022/06/24 06:28:46;;;;;;;7.00;2.23;;;;;;;24.71;55.58;96838.41;5038682;28;20655;-72
2022/06/24 06:31:11;;;;;;;9.20;2.60;;;;;;;24.71;55.35;96834.88;5034592;28;20678;-70
2022/06/24 06:33:37;;;;;;;8.23;2.20;;;;;;;24.84;55.26;96845.19;5037087;28;20203;-71
2022/06/24 06:36:06;;;;;;;8.37;2.50;;;;;;;25.02;55.22;96853.97;5035197;28;20191;-70
2022/06/24 06:38:32;;;;;;;4.80;2.83;;;;;;;25.27;54.72;96848.81;5037671;28;20465;-70
2022/06/24 06:40:58;;;;;;;7.20;2.40;;;;;;;25.22;54.02;96848.75;5033548;28;20797;-69
2022/06/24 06:43:24;;;;;;;5.53;2.40;;;;;;;25.42;54.26;96845.47;5033537;28;20413;-69
2022/06/24 06:45:49;;;;;;;7.33;2.70;;;;;;;25.56;53.39;96848.53;5032605;28;20179;-68
2022/06/24 06:48:15;;;;;;;8.70;2.40;;;;;;;25.75;53.58;96848.91;5035654;28;20199;-69
2022/06/24 06:50:40;;;;;;;7.20;1.97;;;;;;;25.32;52.79;96852.59;5036544;28;20259;-69
2022/06/24 06:53:06;;;;;;;6.03;2.20;;;;;;;25.52;53.02;96852.78;5037730;28;20184;-70
2022/06/24 06:55:31;;;;;;;6.43;2.00;;;;;;;25.81;52.55;96852.44;5041283;28;20179;-69
2022/06/24 06:57:57;;;;;;;5.40;2.60;;;;;;;25.74;51.69;96851.84;5037309;28;20208;-69
2022/06/24 07:00:22;;;;;;;9.70;2.23;;;;;;;25.90;51.53;96842.00;5038948;28;20270;-71
2022/06/24 07:02:47;;;;;;;7.80;2.43;;;;;;;26.00;51.36;96842.06;5039479;28;20187;-70
2022/06/24 07:05:13;;;;;;;6.60;2.13;;;;;;;26.08;50.38;96843.47;5037102;28;20219;-70
2022/06/24 07:07:38;;;;;;;12.47;3.07;;;;;;;26.24;49.37;96856.97;5034368;28;20195;-70
2022/06/24 07:10:04;;;;;;;6.97;1.90;;;;;;;26.14;49.24;96855.84;5035934;28;20175;-72
2022/06/24 07:12:30;;;;;;;3.13;1.90;;;;;;;26.21;48.44;96861.00;5037073;28;20184;-72
2022/06/24 07:14:55;;;;;;;4.87;2.00;;;;;;;26.35;47.91;96859.44;5053915;28;20453;-71
2022/06/24 07:17:21;;;;;;;3.07;2.00;;;;;;;26.42;48.17;96853.00;5048753;28;20321;-70
2022/06/24 07:19:46;;;;;;;10.83;2.60;;;;;;;26.64;48.14;96859.00;5045753;28;20175;-71
2022/06/24 07:22:13;;;;;;;4.67;2.30;;;;;;;26.61;47.67;96853.34;5042899;28;20190;-71
2022/06/24 07:24:39;;;;;;;4.20;1.70;;;;;;;26.75;48.04;96861.72;5042919;28;20211;-71
2022/06/24 07:27:06;;;;;;;6.57;1.87;;;;;;;26.98;47.24;96861.25;5041046;28;20442;-71
2022/06/24 07:29:33;;;;;;;5.70;2.00;;;;;;;27.09;45.75;96867.41;5043746;28;20269;-70
2022/06/24 07:32:07;;;;;;;8.40;2.43;;;;;;;26.80;46.04;96873.31;5047473;28;20477;-71
2022/06/24 07:34:35;;;;;;;4.23;1.73;;;;;;;26.22;47.38;96874.13;5034976;28;20439;-70
2022/06/24 07:37:02;;;;;;;11.03;2.40;;;;;;;26.25;47.73;96867.47;5048111;28;21020;-71
2022/06/24 07:39:28;;;;;;;5.83;2.20;;;;;;;26.46;47.61;96862.16;5043480;28;20461;-71
2022/06/24 07:41:54;;;;;;;6.13;2.53;;;;;;;26.31;47.70;96865.59;5047898;28;20473;-71
2022/06/24 07:44:20;;;;;;;10.03;1.90;;;;;;;26.51;47.70;96854.13;5049797;28;20421;-71
2022/06/24 07:46:46;;;;;;;8.43;2.60;;;;;;;26.78;47.24;96851.25;5040502;28;20199;-71
2022/06/24 07:49:11;;;;;;;11.93;2.30;;;;;;;27.06;46.33;96849.16;5044808;28;20430;-71
2022/06/24 07:51:37;;;;;;;4.03;2.00;;;;;;;26.53;46.50;96847.41;5038925;28;20544;-71
2022/06/24 07:54:05;;;;;;;7.57;2.33;;;;;;;26.95;46.50;96845.63;5045399;28;20180;-69
2022/06/24 07:59:16;;;;;;;6.53;1.80;;;;;;;27.39;43.45;96833.53;5042341;28;20458;-71
2022/06/24 08:01:41;;;;;;;5.10;1.80;;;;;;;27.51;43.31;96829.78;5041060;28;20488;-71
2022/06/24 08:04:10;;;;;;;4.63;1.80;;;;;;;27.66;42.75;96829.78;5037334;28;20183;-70
2022/06/24 08:06:42;;;;;;;5.43;1.60;;;;;;;27.61;42.71;96832.47;5046773;28;20198;-72
2022/06/24 08:09:08;;;;;;;5.57;1.90;;;;;;;27.74;42.09;96823.84;5035151;28;20406;-72
2022/06/24 08:11:34;;;;;;;4.37;1.70;;;;;;;27.86;42.12;96817.34;5039161;28;20498;-71
2022/06/24 08:13:59;;;;;;;3.10;1.83;;;;;;;28.01;42.64;96814.59;5036890;28;20620;-70
2022/06/24 08:16:25;;;;;;;7.03;2.10;;;;;;;27.92;42.36;96818.94;5045464;28;20421;-73
2022/06/24 08:18:51;;;;;;;5.57;1.70;;;;;;;27.91;42.10;96809.25;5043434;28;20207;-71
2022/06/24 08:21:16;;;;;;;4.70;1.40;;;;;;;28.20;41.48;96809.44;5054473;28;20523;-72
2022/06/24 08:23:42;;;;;;;3.53;1.47;;;;;;;28.40;40.64;96807.75;5051994;28;20429;-71
2022/06/24 08:26:07;;;;;;;3.23;1.70;;;;;;;28.35;40.08;96796.97;5037576;28;20186;-71
2022/06/24 08:28:33;;;;;;;2.60;1.40;;;;;;;28.56;40.67;96802.25;5045485;28;20187;-71
2022/06/24 08:30:59;;;;;;;3.20;1.40;;;;;;;28.39;40.30;96805.31;5050896;28;20585;-71
2022/06/24 08:33:24;;;;;;;5.03;1.80;;;;;;;28.75;40.05;96805.94;5045092;28;20187;-73
2022/06/24 08:35:50;;;;;;;13.70;2.23;;;;;;;28.91;39.83;96797.75;5049760;28;20183;-71
2022/06/24 08:38:19;;;;;;;3.90;1.47;;;;;;;28.89;39.12;96789.94;5045672;28;20290;-70
2022/06/24 08:40:49;;;;;;;4.17;1.47;;;;;;;28.90;39.09;96794.22;5044811;28;20517;-70
2022/06/24 08:43:16;;;;;;;1.90;1.30;;;;;;;28.90;38.81;96788.84;5042406;28;20414;-70
2022/06/24 08:45:42;;;;;;;3.80;1.53;;;;;;;28.91;38.64;96792.38;5047520;28;20421;-70
2022/06/24 08:48:08;;;;;;;3.50;1.30;;;;;;;28.78;38.03;96788.41;5042561;28;20863;-70
2022/06/24 08:50:34;;;;;;;6.10;1.77;;;;;;;28.76;38.82;96785.16;5051262;28;20600;-70
2022/06/24 08:53:04;;;;;;;5.60;1.50;;;;;;;28.72;39.38;96789.50;5041130;28;20443;-70
2022/06/24 08:55:34;;;;;;;3.07;1.67;;;;;;;28.43;39.79;96782.13;5047017;28;20182;-69
2022/06/24 08:58:00;;;;;;;3.07;1.67;;;;;;;28.65;40.35;96787.91;5055420;28;20465;-70
2022/06/24 09:00:25;;;;;;;6.40;1.90;;;;;;;28.83;39.82;96782.97;5038543;28;20416;-71
2022/06/24 09:02:51;;;;;;;4.50;1.60;;;;;;;28.94;39.15;96781.81;5047727;28;20196;-70
2022/06/24 09:05:17;;;;;;;1.83;1.37;;;;;;;29.13;38.00;96778.41;5043966;28;20219;-69
2022/06/24 09:07:42;;;;;;;2.30;1.37;;;;;;;29.43;37.83;96779.25;5047562;28;20191;-70
2022/06/24 09:10:13;;;;;;;6.00;1.77;;;;;;;29.56;36.66;96770.47;5051448;28;20183;-71
2022/06/24 09:12:43;;;;;;;3.87;1.67;;;;;;;29.87;36.68;96769.31;5052540;28;20175;-71
2022/06/24 09:15:11;;;;;;;2.07;1.10;;;;;;;29.87;35.08;96766.63;5051089;28;20421;-71
2022/06/24 09:17:38;;;;;;;6.10;1.20;;;;;;;29.78;35.06;96758.34;5041820;28;20516;-70
2022/06/24 09:20:26;;;;;;;10.67;1.50;;;;;;;29.65;36.01;96756.34;5030968;28;20426;-69
2022/06/24 09:23:02;;;;;;;2.83;1.43;;;;;;;29.48;36.50;96757.63;5043765;28;20509;-70
2022/06/24 09:25:42;;;;;;;5.40;1.40;;;;;;;29.70;36.79;96765.19;5035513;28;20417;-70
2022/06/24 09:28:08;;;;;;;3.03;1.33;;;;;;;29.67;36.59;96765.78;5039543;28;20438;-71
2022/06/24 09:30:34;;;;;;;4.73;1.80;;;;;;;29.69;37.35;96757.38;5045808;28;20421;-70
2022/06/24 09:33:01;;;;;;;4.93;1.73;;;;;;;29.84;36.01;96751.81;5042501;28;20550;-70
2022/06/24 09:35:26;;;;;;;3.73;1.53;;;;;;;30.17;36.18;96753.88;5049620;28;20776;-70
2022/06/24 09:37:52;;;;;;;5.60;1.43;;;;;;;30.45;36.34;96757.53;5045927;28;20466;-69
2022/06/24 09:40:25;;;;;;;6.63;1.50;;;;;;;30.72;34.86;96747.16;5042971;28;20194;-71
2022/06/24 09:43:03;;;;;;;1.83;1.20;;;;;;;30.85;34.71;96754.50;5022071;28;20194;-68
2022/06/24 09:45:49;;;;;;;2.20;1.40;;;;;;;30.52;35.40;96753.63;5033854;28;20429;-71
2022/06/24 09:48:30;;;;;;;4.97;1.53;;;;;;;30.54;35.12;96755.00;5037033;28;20427;-70
2022/06/24 09:51:02;;;;;;;4.50;1.40;;;;;;;30.73;34.97;96740.66;5044570;28;20434;-69
2022/06/24 09:53:32;;;;;;;2.50;1.50;;;;;;;30.71;34.72;96746.34;5034931;28;20461;-70
2022/06/24 09:55:57;;;;;;;5.20;1.43;;;;;;;30.60;34.72;96744.91;5045722;28;20438;-70
2022/06/24 09:58:23;;;;;;;3.80;1.40;;;;;;;30.70;34.37;96744.75;5036365;28;20477;-70
2022/06/24 10:00:50;;;;;;;2.70;1.30;;;;;;;30.77;35.11;96747.09;5039009;28;20190;-71
2022/06/24 10:03:16;;;;;;;9.17;1.70;;;;;;;30.96;34.64;96747.03;5041594;28;20178;-70
2022/06/24 10:05:48;;;;;;;4.53;1.70;;;;;;;31.23;33.90;96732.00;5041594;28;20830;-71
2022/06/24 10:08:17;;;;;;;14.43;1.90;;;;;;;31.31;34.03;96728.59;5035518;28;20453;-70
2022/06/24 10:10:47;;;;;;;6.40;2.00;;;;;;;31.14;34.23;96728.38;5053962;28;20409;-71
2022/06/24 10:13:24;;;;;;;3.77;1.47;;;;;;;30.77;34.24;96726.25;5050367;28;20429;-70
2022/06/24 10:15:51;;;;;;;4.37;1.30;;;;;;;30.73;35.11;96730.66;5050715;28;20495;-69
2022/06/24 10:18:21;;;;;;;3.90;1.33;;;;;;;30.59;35.75;96737.91;5031977;28;20487;-70
2022/06/24 10:20:47;;;;;;;2.63;1.30;;;;;;;30.43;36.02;96740.78;5051272;28;20425;-70
2022/06/24 10:23:36;;;;;;;3.53;2.13;;;;;;;30.67;35.99;96737.22;5047205;28;20452;-69
2022/06/24 10:26:12;;;;;;;9.17;1.53;;;;;;;30.72;34.96;96739.03;5035725;28;20429;-69
2022/06/24 10:28:59;;;;;;;2.70;1.20;;;;;;;30.43;35.70;96738.09;5040463;28;20428;-70
2022/06/24 10:31:48;;;;;;;2.93;1.40;;;;;;;30.30;37.50;96736.13;5053885;28;20775;-70
2022/06/24 10:34:22;;;;;;;8.33;1.53;;;;;;;30.26;37.77;96745.91;5048595;28;20932;-69
2022/06/24 10:37:08;;;;;;;3.13;1.30;;;;;;;30.50;37.58;96743.91;5055110;28;21089;-71
2022/06/24 10:39:45;;;;;;;3.57;1.63;;;;;;;30.57;36.23;96742.78;5049736;28;20469;-70
2022/06/24 10:42:13;;;;;;;3.80;1.40;;;;;;;30.56;36.02;96747.38;5045412;28;20421;-69
2022/06/24 10:44:51;;;;;;;3.87;1.50;;;;;;;30.31;36.60;96740.44;5052749;28;20439;-70
2022/06/24 10:47:18;;;;;;;5.80;1.53;;;;;;;30.26;37.03;96737.78;5049365;28;20866;-70
2022/06/24 10:49:50;;;;;;;5.33;1.63;;;;;;;30.17;37.06;96729.56;5051910;28;20449;-71
2022/06/24 10:52:37;;;;;;;1.73;1.20;;;;;;;30.05;36.09;96729.19;5049028;28;20913;-70
2022/06/24 10:55:17;;;;;;;4.27;1.50;;;;;;;29.79;38.16;96734.88;5041586;28;20430;-70
2022/06/24 10:57:50;;;;;;;6.33;1.93;;;;;;;29.75;39.27;96729.22;5041175;28;20530;-70
2022/06/24 11:00:17;;;;;;;9.17;1.90;;;;;;;29.70;39.56;96738.19;5040928;28;21006;-70
2022/06/24 11:02:44;;;;;;;4.20;1.87;;;;;;;29.60;39.80;96743.72;5046760;28;20438;-70
2022/06/24 11:05:19;;;;;;;4.07;2.20;;;;;;;29.39;41.26;96737.72;5041772;28;20517;-70
2022/06/24 11:07:46;;;;;;;4.43;2.00;;;;;;;29.24;40.79;96734.06;5032626;28;20466;-72
2022/06/24 11:10:23;;;;;;;3.00;1.90;;;;;;;29.20;40.69;96743.84;5044948;28;20422;-71
2022/06/24 11:12:53;;;;;;;6.63;2.13;;;;;;;29.18;40.45;96740.59;5037957;28;20458;-71
2022/06/24 11:15:19;;;;;;;6.83;2.30;;;;;;;29.14;40.85;96736.06;5045780;28;20509;-72
2022/06/24 11:17:45;;;;;;;11.03;3.30;;;;;;;29.07;41.15;96739.09;5043490;28;20819;-71
2022/06/24 11:20:14;;;;;;;7.47;3.53;;;;;;;29.05;41.18;96735.88;5048208;28;20517;-70
2022/06/24 11:22:44;;;;;;;75.50;28.33;;;;;;;29.02;41.19;96734.56;5027039;28;20552;-71
2022/06/24 11:25:12;;;;;;;29.10;11.67;;;;;;;29.05;42.10;96733.19;5040056;28;20426;-71
2022/06/24 11:27:38;;;;;;;12.90;5.20;;;;;;;29.00;42.56;96727.81;5042197;28;20442;-72
2022/06/24 11:30:04;;;;;;;34.50;14.10;;;;;;;28.93;43.38;96726.28;5049477;28;20512;-71
2022/06/24 11:32:50;;;;;;;35.53;13.60;;;;;;;28.96;42.80;96728.41;5046323;28;20241;-71
2022/06/24 11:35:19;;;;;;;12.40;5.17;;;;;;;28.98;42.68;96727.31;5049884;28;20466;-71
2022/06/24 11:37:44;;;;;;;24.70;7.87;;;;;;;29.00;43.52;96738.59;5047031;28;21018;-71
2022/06/24 11:40:18;;;;;;;44.90;18.07;;;;;;;28.91;43.35;96728.44;5063316;28;20428;-70
2022/06/24 11:42:44;;;;;;;43.67;18.13;;;;;;;28.85;43.55;96720.69;5048356;28;20614;-70
2022/06/24 11:45:09;;;;;;;43.73;4.80;;;;;;;28.84;43.43;96717.19;5042845;28;20521;-71
2022/06/24 11:47:35;;;;;;;34.17;2.97;;;;;;;28.93;43.25;96718.19;5047253;28;20210;-70